sensor_id;sensor_type;location;lat;lon;timestamp;P1;durP1;ratioP1;P2;durP2;ratioP2
16504;SDS011;8365;51.030;4.696;2022-07-23T00:01:07;19.13;;;17.23;;
16504;SDS011;8365;51.030;4.696;2022-07-23T00:03:37;18.80;;;16.80;;
16504;SDS011;8365;51.030;4.696;2022-07-23T00:06:08;18.57;;;16.67;;
16504;SDS011;8365;51.030;4.696;2022-07-23T00:08:38;18.40;;;16.70;;
16504;SDS011;8365;51.030;4.696;2022-07-23T00:11:09;20.60;;;18.60;;
16504;SDS011;8365;51.030;4.696;2022-07-23T00:13:42;18.80;;;16.93;;
16504;SDS011;8365;51.030;4.696;2022-07-23T00:16:13;19.10;;;17.20;;
16504;SDS011;8365;51.030;4.696;2022-07-23T00:18:43;18.93;;;17.20;;
16504;SDS011;8365;51.030;4.696;2022-07-23T00:21:14;19.27;;;17.37;;
16504;SDS011;8365;51.030;4.696;2022-07-23T00:23:44;19.30;;;17.50;;
16504;SDS011;8365;51.030;4.696;2022-07-23T00:26:17;19.30;;;17.00;;
16504;SDS011;8365;51.030;4.696;2022-07-23T00:28:47;17.80;;;16.20;;
16504;SDS011;8365;51.030;4.696;2022-07-23T00:31:18;18.27;;;16.53;;
16504;SDS011;8365;51.030;4.696;2022-07-23T00:33:48;18.70;;;17.00;;
16504;SDS011;8365;51.030;4.696;2022-07-23T00:36:19;21.70;;;17.33;;
16504;SDS011;8365;51.030;4.696;2022-07-23T00:38:49;19.40;;;17.70;;
16504;SDS011;8365;51.030;4.696;2022-07-23T00:41:20;19.70;;;17.40;;
16504;SDS011;8365;51.030;4.696;2022-07-23T00:43:50;19.07;;;17.20;;
16504;SDS011;8365;51.030;4.696;2022-07-23T00:46:21;20.97;;;18.87;;
16504;SDS011;8365;51.030;4.696;2022-07-23T00:48:52;19.30;;;17.30;;
16504;SDS011;8365;51.030;4.696;2022-07-23T00:51:23;18.63;;;16.83;;
16504;SDS011;8365;51.030;4.696;2022-07-23T00:53:53;20.10;;;18.00;;
16504;SDS011;8365;51.030;4.696;2022-07-23T00:56:23;21.47;;;19.30;;
16504;SDS011;8365;51.030;4.696;2022-07-23T00:58:56;20.40;;;18.43;;
16504;SDS011;8365;51.030;4.696;2022-07-23T01:01:27;20.50;;;18.50;;
16504;SDS011;8365;51.030;4.696;2022-07-23T01:03:58;19.23;;;17.43;;
16504;SDS011;8365;51.030;4.696;2022-07-23T01:06:28;19.93;;;18.03;;
16504;SDS011;8365;51.030;4.696;2022-07-23T01:08:59;22.17;;;19.40;;
16504;SDS011;8365;51.030;4.696;2022-07-23T01:11:29;19.90;;;17.80;;
16504;SDS011;8365;51.030;4.696;2022-07-23T01:14:08;20.20;;;18.20;;
16504;SDS011;8365;51.030;4.696;2022-07-23T01:16:46;19.37;;;17.47;;
16504;SDS011;8365;51.030;4.696;2022-07-23T01:19:17;19.87;;;18.13;;
16504;SDS011;8365;51.030;4.696;2022-07-23T01:21:50;20.50;;;18.53;;
16504;SDS011;8365;51.030;4.696;2022-07-23T01:24:21;19.60;;;17.80;;
16504;SDS011;8365;51.030;4.696;2022-07-23T01:26:52;20.73;;;18.83;;
16504;SDS011;8365;51.030;4.696;2022-07-23T01:29:22;20.07;;;18.07;;
16504;SDS011;8365;51.030;4.696;2022-07-23T01:31:53;18.60;;;16.77;;
16504;SDS011;8365;51.030;4.696;2022-07-23T01:34:23;19.47;;;17.63;;
16504;SDS011;8365;51.030;4.696;2022-07-23T01:36:54;20.47;;;18.33;;
16504;SDS011;8365;51.030;4.696;2022-07-23T01:39:24;21.80;;;18.97;;
16504;SDS011;8365;51.030;4.696;2022-07-23T01:41:55;19.63;;;17.57;;
16504;SDS011;8365;51.030;4.696;2022-07-23T01:44:27;19.63;;;17.73;;
16504;SDS011;8365;51.030;4.696;2022-07-23T01:46:58;20.23;;;18.23;;
16504;SDS011;8365;51.030;4.696;2022-07-23T01:49:28;19.57;;;17.57;;
16504;SDS011;8365;51.030;4.696;2022-07-23T01:51:59;20.10;;;17.60;;
16504;SDS011;8365;51.030;4.696;2022-07-23T01:54:30;20.20;;;18.30;;
16504;SDS011;8365;51.030;4.696;2022-07-23T01:57:03;18.70;;;17.00;;
16504;SDS011;8365;51.030;4.696;2022-07-23T01:59:34;19.70;;;17.83;;
16504;SDS011;8365;51.030;4.696;2022-07-23T02:02:11;20.20;;;18.23;;
16504;SDS011;8365;51.030;4.696;2022-07-23T02:04:44;19.00;;;17.10;;
16504;SDS011;8365;51.030;4.696;2022-07-23T02:07:15;17.87;;;16.10;;
16504;SDS011;8365;51.030;4.696;2022-07-23T02:09:45;19.37;;;17.43;;
16504;SDS011;8365;51.030;4.696;2022-07-23T02:12:16;19.67;;;17.83;;
16504;SDS011;8365;51.030;4.696;2022-07-23T02:14:46;19.53;;;17.63;;
16504;SDS011;8365;51.030;4.696;2022-07-23T02:17:16;20.40;;;18.47;;
16504;SDS011;8365;51.030;4.696;2022-07-23T02:19:47;19.57;;;17.67;;
16504;SDS011;8365;51.030;4.696;2022-07-23T02:22:17;20.20;;;18.20;;
16504;SDS011;8365;51.030;4.696;2022-07-23T02:24:48;19.10;;;17.20;;
16504;SDS011;8365;51.030;4.696;2022-07-23T02:27:18;20.90;;;18.77;;
16504;SDS011;8365;51.030;4.696;2022-07-23T02:29:49;19.70;;;17.80;;
16504;SDS011;8365;51.030;4.696;2022-07-23T02:32:20;19.13;;;17.27;;
16504;SDS011;8365;51.030;4.696;2022-07-23T02:34:51;19.33;;;17.33;;
16504;SDS011;8365;51.030;4.696;2022-07-23T02:37:21;20.83;;;18.83;;
16504;SDS011;8365;51.030;4.696;2022-07-23T02:39:52;21.47;;;19.27;;
16504;SDS011;8365;51.030;4.696;2022-07-23T02:42:23;20.67;;;18.53;;
16504;SDS011;8365;51.030;4.696;2022-07-23T02:44:54;20.37;;;18.23;;
16504;SDS011;8365;51.030;4.696;2022-07-23T02:47:24;21.40;;;19.20;;
16504;SDS011;8365;51.030;4.696;2022-07-23T02:49:54;21.43;;;19.33;;
16504;SDS011;8365;51.030;4.696;2022-07-23T02:52:25;19.93;;;18.03;;
16504;SDS011;8365;51.030;4.696;2022-07-23T02:54:58;20.13;;;18.07;;
16504;SDS011;8365;51.030;4.696;2022-07-23T02:57:31;20.67;;;18.50;;
16504;SDS011;8365;51.030;4.696;2022-07-23T03:00:01;20.13;;;18.00;;
16504;SDS011;8365;51.030;4.696;2022-07-23T03:02:33;20.60;;;18.67;;
16504;SDS011;8365;51.030;4.696;2022-07-23T03:05:03;19.27;;;17.27;;
16504;SDS011;8365;51.030;4.696;2022-07-23T03:07:34;20.13;;;18.03;;
16504;SDS011;8365;51.030;4.696;2022-07-23T03:10:05;20.50;;;18.27;;
16504;SDS011;8365;51.030;4.696;2022-07-23T03:12:35;19.70;;;17.80;;
16504;SDS011;8365;51.030;4.696;2022-07-23T03:15:06;20.57;;;18.17;;
16504;SDS011;8365;51.030;4.696;2022-07-23T03:17:37;19.27;;;17.47;;
16504;SDS011;8365;51.030;4.696;2022-07-23T03:20:10;19.73;;;17.93;;
16504;SDS011;8365;51.030;4.696;2022-07-23T03:22:40;21.90;;;18.10;;
16504;SDS011;8365;51.030;4.696;2022-07-23T03:25:13;18.77;;;16.97;;
16504;SDS011;8365;51.030;4.696;2022-07-23T03:27:43;20.67;;;18.57;;
16504;SDS011;8365;51.030;4.696;2022-07-23T03:30:15;22.47;;;17.90;;
16504;SDS011;8365;51.030;4.696;2022-07-23T03:32:45;20.70;;;18.40;;
16504;SDS011;8365;51.030;4.696;2022-07-23T03:35:18;20.47;;;18.47;;
16504;SDS011;8365;51.030;4.696;2022-07-23T03:37:49;19.23;;;17.33;;
16504;SDS011;8365;51.030;4.696;2022-07-23T03:40:19;19.80;;;17.83;;
16504;SDS011;8365;51.030;4.696;2022-07-23T03:42:50;20.73;;;18.57;;
16504;SDS011;8365;51.030;4.696;2022-07-23T03:45:20;19.60;;;17.80;;
16504;SDS011;8365;51.030;4.696;2022-07-23T03:47:50;21.57;;;19.30;;
16504;SDS011;8365;51.030;4.696;2022-07-23T03:50:21;20.83;;;18.83;;
16504;SDS011;8365;51.030;4.696;2022-07-23T03:52:52;20.10;;;17.90;;
16504;SDS011;8365;51.030;4.696;2022-07-23T03:55:24;18.93;;;17.03;;
16504;SDS011;8365;51.030;4.696;2022-07-23T03:57:54;18.83;;;17.03;;
16504;SDS011;8365;51.030;4.696;2022-07-23T04:00:24;19.07;;;17.10;;
16504;SDS011;8365;51.030;4.696;2022-07-23T04:02:55;19.97;;;18.00;;
16504;SDS011;8365;51.030;4.696;2022-07-23T04:05:25;19.03;;;17.13;;
16504;SDS011;8365;51.030;4.696;2022-07-23T04:07:56;18.40;;;16.60;;
16504;SDS011;8365;51.030;4.696;2022-07-23T04:10:26;19.40;;;17.23;;
16504;SDS011;8365;51.030;4.696;2022-07-23T04:12:57;18.03;;;16.43;;
16504;SDS011;8365;51.030;4.696;2022-07-23T04:15:27;19.17;;;16.93;;
16504;SDS011;8365;51.030;4.696;2022-07-23T04:17:58;17.70;;;15.90;;
16504;SDS011;8365;51.030;4.696;2022-07-23T04:20:28;17.40;;;14.93;;
16504;SDS011;8365;51.030;4.696;2022-07-23T04:23:01;17.47;;;15.47;;
16504;SDS011;8365;51.030;4.696;2022-07-23T04:25:31;17.97;;;16.10;;
16504;SDS011;8365;51.030;4.696;2022-07-23T04:28:02;19.80;;;16.33;;
16504;SDS011;8365;51.030;4.696;2022-07-23T04:30:32;17.13;;;15.63;;
16504;SDS011;8365;51.030;4.696;2022-07-23T04:33:03;17.17;;;15.47;;
16504;SDS011;8365;51.030;4.696;2022-07-23T04:35:36;18.37;;;16.57;;
16504;SDS011;8365;51.030;4.696;2022-07-23T04:38:07;18.27;;;16.57;;
16504;SDS011;8365;51.030;4.696;2022-07-23T04:40:37;18.40;;;16.50;;
16504;SDS011;8365;51.030;4.696;2022-07-23T04:43:08;18.37;;;16.47;;
16504;SDS011;8365;51.030;4.696;2022-07-23T04:45:38;18.93;;;17.10;;
16504;SDS011;8365;51.030;4.696;2022-07-23T04:48:09;19.53;;;15.97;;
16504;SDS011;8365;51.030;4.696;2022-07-23T04:50:39;17.37;;;15.67;;
16504;SDS011;8365;51.030;4.696;2022-07-23T04:53:10;16.87;;;15.30;;
16504;SDS011;8365;51.030;4.696;2022-07-23T04:55:40;19.03;;;16.40;;
16504;SDS011;8365;51.030;4.696;2022-07-23T04:58:11;17.30;;;15.50;;
16504;SDS011;8365;51.030;4.696;2022-07-23T05:00:41;17.40;;;15.80;;
16504;SDS011;8365;51.030;4.696;2022-07-23T05:03:12;18.07;;;16.30;;
16504;SDS011;8365;51.030;4.696;2022-07-23T05:05:42;17.37;;;15.77;;
16504;SDS011;8365;51.030;4.696;2022-07-23T05:08:13;17.87;;;16.17;;
16504;SDS011;8365;51.030;4.696;2022-07-23T05:10:43;18.80;;;17.00;;
16504;SDS011;8365;51.030;4.696;2022-07-23T05:13:14;20.20;;;17.20;;
16504;SDS011;8365;51.030;4.696;2022-07-23T05:15:45;17.63;;;15.93;;
16504;SDS011;8365;51.030;4.696;2022-07-23T05:18:16;21.20;;;18.97;;
16504;SDS011;8365;51.030;4.696;2022-07-23T05:20:47;17.93;;;16.20;;
16504;SDS011;8365;51.030;4.696;2022-07-23T05:23:17;18.67;;;16.77;;
16504;SDS011;8365;51.030;4.696;2022-07-23T05:25:48;18.40;;;16.60;;
16504;SDS011;8365;51.030;4.696;2022-07-23T05:28:18;18.53;;;16.83;;
16504;SDS011;8365;51.030;4.696;2022-07-23T05:30:49;18.17;;;16.43;;
16504;SDS011;8365;51.030;4.696;2022-07-23T05:33:22;18.47;;;16.77;;
16504;SDS011;8365;51.030;4.696;2022-07-23T05:35:53;18.33;;;16.63;;
16504;SDS011;8365;51.030;4.696;2022-07-23T05:38:23;17.90;;;16.10;;
16504;SDS011;8365;51.030;4.696;2022-07-23T05:40:53;17.80;;;16.00;;
16504;SDS011;8365;51.030;4.696;2022-07-23T05:43:24;19.27;;;16.43;;
16504;SDS011;8365;51.030;4.696;2022-07-23T05:45:55;18.77;;;16.60;;
16504;SDS011;8365;51.030;4.696;2022-07-23T05:48:25;17.03;;;15.30;;
16504;SDS011;8365;51.030;4.696;2022-07-23T05:50:56;17.93;;;16.00;;
16504;SDS011;8365;51.030;4.696;2022-07-23T05:53:26;17.63;;;16.03;;
16504;SDS011;8365;51.030;4.696;2022-07-23T05:55:56;17.27;;;15.50;;
16504;SDS011;8365;51.030;4.696;2022-07-23T05:58:27;17.50;;;15.80;;
16504;SDS011;8365;51.030;4.696;2022-07-23T06:00:57;17.43;;;15.83;;
16504;SDS011;8365;51.030;4.696;2022-07-23T06:03:28;17.77;;;16.00;;
16504;SDS011;8365;51.030;4.696;2022-07-23T06:06:01;17.67;;;16.07;;
16504;SDS011;8365;51.030;4.696;2022-07-23T06:08:31;15.73;;;14.33;;
16504;SDS011;8365;51.030;4.696;2022-07-23T06:11:02;16.95;;;15.48;;
16504;SDS011;8365;51.030;4.696;2022-07-23T06:13:32;16.35;;;14.68;;
16504;SDS011;8365;51.030;4.696;2022-07-23T06:16:03;15.03;;;13.27;;
16504;SDS011;8365;51.030;4.696;2022-07-23T06:18:33;14.65;;;13.23;;
16504;SDS011;8365;51.030;4.696;2022-07-23T06:21:04;15.23;;;13.73;;
16504;SDS011;8365;51.030;4.696;2022-07-23T06:23:34;14.00;;;12.60;;
16504;SDS011;8365;51.030;4.696;2022-07-23T06:26:05;13.48;;;12.20;;
16504;SDS011;8365;51.030;4.696;2022-07-23T06:28:35;13.02;;;11.82;;
16504;SDS011;8365;51.030;4.696;2022-07-23T06:31:06;12.98;;;11.55;;
16504;SDS011;8365;51.030;4.696;2022-07-23T06:33:36;12.85;;;11.63;;
16504;SDS011;8365;51.030;4.696;2022-07-23T06:36:09;14.02;;;12.68;;
16504;SDS011;8365;51.030;4.696;2022-07-23T06:38:39;14.90;;;12.73;;
16504;SDS011;8365;51.030;4.696;2022-07-23T06:41:10;13.20;;;11.90;;
16504;SDS011;8365;51.030;4.696;2022-07-23T06:43:40;12.60;;;11.40;;
16504;SDS011;8365;51.030;4.696;2022-07-23T06:46:11;14.15;;;12.02;;
16504;SDS011;8365;51.030;4.696;2022-07-23T06:48:41;13.93;;;12.57;;
16504;SDS011;8365;51.030;4.696;2022-07-23T06:51:12;13.88;;;12.18;;
16504;SDS011;8365;51.030;4.696;2022-07-23T06:53:42;13.05;;;11.80;;
16504;SDS011;8365;51.030;4.696;2022-07-23T06:56:13;13.73;;;12.30;;
16504;SDS011;8365;51.030;4.696;2022-07-23T06:58:43;12.95;;;11.82;;
16504;SDS011;8365;51.030;4.696;2022-07-23T07:01:14;13.25;;;11.95;;
16504;SDS011;8365;51.030;4.696;2022-07-23T07:03:44;13.05;;;11.88;;
16504;SDS011;8365;51.030;4.696;2022-07-23T07:06:15;12.65;;;11.43;;
16504;SDS011;8365;51.030;4.696;2022-07-23T07:08:45;12.68;;;11.35;;
16504;SDS011;8365;51.030;4.696;2022-07-23T07:11:18;13.13;;;11.82;;
16504;SDS011;8365;51.030;4.696;2022-07-23T07:13:49;12.50;;;11.32;;
16504;SDS011;8365;51.030;4.696;2022-07-23T07:16:19;12.90;;;11.57;;
16504;SDS011;8365;51.030;4.696;2022-07-23T07:18:50;12.73;;;11.50;;
16504;SDS011;8365;51.030;4.696;2022-07-23T07:21:20;12.73;;;11.57;;
16504;SDS011;8365;51.030;4.696;2022-07-23T07:23:51;12.80;;;11.60;;
16504;SDS011;8365;51.030;4.696;2022-07-23T07:26:21;13.80;;;12.50;;
16504;SDS011;8365;51.030;4.696;2022-07-23T07:28:51;12.85;;;11.57;;
16504;SDS011;8365;51.030;4.696;2022-07-23T07:31:22;13.45;;;12.05;;
16504;SDS011;8365;51.030;4.696;2022-07-23T07:33:52;12.23;;;11.23;;
16504;SDS011;8365;51.030;4.696;2022-07-23T07:36:23;12.77;;;11.68;;
16504;SDS011;8365;51.030;4.696;2022-07-23T07:38:53;12.70;;;11.45;;
16504;SDS011;8365;51.030;4.696;2022-07-23T07:41:24;12.32;;;10.50;;
16504;SDS011;8365;51.030;4.696;2022-07-23T07:43:56;13.50;;;11.88;;
16504;SDS011;8365;51.030;4.696;2022-07-23T07:46:26;12.32;;;11.23;;
16504;SDS011;8365;51.030;4.696;2022-07-23T07:48:57;12.57;;;11.40;;
16504;SDS011;8365;51.030;4.696;2022-07-23T07:51:28;12.02;;;10.82;;
16504;SDS011;8365;51.030;4.696;2022-07-23T07:53:59;10.90;;;9.95;;
16504;SDS011;8365;51.030;4.696;2022-07-23T07:56:29;12.55;;;9.82;;
16504;SDS011;8365;51.030;4.696;2022-07-23T07:59:00;10.90;;;9.90;;
16504;SDS011;8365;51.030;4.696;2022-07-23T08:01:31;11.30;;;10.23;;
16504;SDS011;8365;51.030;4.696;2022-07-23T08:04:01;10.65;;;9.75;;
16504;SDS011;8365;51.030;4.696;2022-07-23T08:06:32;11.15;;;10.15;;
16504;SDS011;8365;51.030;4.696;2022-07-23T08:09:02;10.95;;;9.77;;
16504;SDS011;8365;51.030;4.696;2022-07-23T08:11:33;11.05;;;9.95;;
16504;SDS011;8365;51.030;4.696;2022-07-23T08:14:03;10.80;;;9.70;;
16504;SDS011;8365;51.030;4.696;2022-07-23T08:16:34;9.50;;;8.63;;
16504;SDS011;8365;51.030;4.696;2022-07-23T08:19:04;10.18;;;9.27;;
16504;SDS011;8365;51.030;4.696;2022-07-23T08:21:34;11.20;;;10.10;;
16504;SDS011;8365;51.030;4.696;2022-07-23T08:24:05;11.40;;;9.50;;
16504;SDS011;8365;51.030;4.696;2022-07-23T08:26:35;9.80;;;8.80;;
16504;SDS011;8365;51.030;4.696;2022-07-23T08:29:06;10.02;;;9.02;;
16504;SDS011;8365;51.030;4.696;2022-07-23T08:31:36;9.85;;;8.95;;
16504;SDS011;8365;51.030;4.696;2022-07-23T08:34:07;10.77;;;8.90;;
16504;SDS011;8365;51.030;4.696;2022-07-23T08:36:38;10.82;;;9.07;;
16504;SDS011;8365;51.030;4.696;2022-07-23T08:39:08;10.43;;;9.40;;
16504;SDS011;8365;51.030;4.696;2022-07-23T08:41:39;9.75;;;8.27;;
16504;SDS011;8365;51.030;4.696;2022-07-23T08:44:12;9.10;;;8.20;;
16504;SDS011;8365;51.030;4.696;2022-07-23T08:46:43;10.27;;;9.35;;
16504;SDS011;8365;51.030;4.696;2022-07-23T08:49:14;10.27;;;9.27;;
16504;SDS011;8365;51.030;4.696;2022-07-23T08:51:44;10.77;;;9.73;;
16504;SDS011;8365;51.030;4.696;2022-07-23T08:54:17;10.63;;;9.45;;
16504;SDS011;8365;51.030;4.696;2022-07-23T08:56:48;10.57;;;9.45;;
16504;SDS011;8365;51.030;4.696;2022-07-23T08:59:18;11.35;;;8.40;;
16504;SDS011;8365;51.030;4.696;2022-07-23T09:01:49;10.05;;;9.13;;
16504;SDS011;8365;51.030;4.696;2022-07-23T09:04:19;9.68;;;8.70;;
16504;SDS011;8365;51.030;4.696;2022-07-23T09:06:50;10.38;;;8.45;;
16504;SDS011;8365;51.030;4.696;2022-07-23T09:09:21;10.20;;;8.60;;
16504;SDS011;8365;51.030;4.696;2022-07-23T09:12:01;8.98;;;8.07;;
16504;SDS011;8365;51.030;4.696;2022-07-23T09:14:41;9.35;;;7.72;;
16504;SDS011;8365;51.030;4.696;2022-07-23T09:17:18;8.77;;;7.75;;
16504;SDS011;8365;51.030;4.696;2022-07-23T09:19:49;9.93;;;9.02;;
16504;SDS011;8365;51.030;4.696;2022-07-23T09:22:20;8.98;;;8.07;;
16504;SDS011;8365;51.030;4.696;2022-07-23T09:25:03;8.77;;;8.07;;
16504;SDS011;8365;51.030;4.696;2022-07-23T09:30:24;8.75;;;7.97;;
16504;SDS011;8365;51.030;4.696;2022-07-23T09:33:10;8.13;;;7.32;;
16504;SDS011;8365;51.030;4.696;2022-07-23T09:35:46;7.55;;;6.80;;
16504;SDS011;8365;51.030;4.696;2022-07-23T09:38:17;8.18;;;7.25;;
16504;SDS011;8365;51.030;4.696;2022-07-23T09:41:07;7.88;;;7.18;;
16504;SDS011;8365;51.030;4.696;2022-07-23T09:43:43;6.93;;;6.32;;
16504;SDS011;8365;51.030;4.696;2022-07-23T09:48:53;8.20;;;6.80;;
16504;SDS011;8365;51.030;4.696;2022-07-23T09:51:26;7.22;;;6.63;;
16504;SDS011;8365;51.030;4.696;2022-07-23T09:53:59;8.45;;;5.38;;
16504;SDS011;8365;51.030;4.696;2022-07-23T09:56:30;6.57;;;5.78;;
16504;SDS011;8365;51.030;4.696;2022-07-23T09:59:05;6.00;;;5.40;;
16504;SDS011;8365;51.030;4.696;2022-07-23T10:01:42;6.18;;;4.88;;
16504;SDS011;8365;51.030;4.696;2022-07-23T10:04:13;6.68;;;6.07;;
16504;SDS011;8365;51.030;4.696;2022-07-23T10:06:44;6.82;;;6.22;;
16504;SDS011;8365;51.030;4.696;2022-07-23T10:09:25;7.10;;;6.50;;
16504;SDS011;8365;51.030;4.696;2022-07-23T10:12:01;6.18;;;5.68;;
16504;SDS011;8365;51.030;4.696;2022-07-23T10:14:51;5.40;;;4.90;;
16504;SDS011;8365;51.030;4.696;2022-07-23T10:17:21;7.53;;;5.45;;
16504;SDS011;8365;51.030;4.696;2022-07-23T10:19:52;6.35;;;5.75;;
16504;SDS011;8365;51.030;4.696;2022-07-23T10:22:23;6.15;;;5.63;;
16504;SDS011;8365;51.030;4.696;2022-07-23T10:36:56;5.70;;;5.30;;
16504;SDS011;8365;51.030;4.696;2022-07-23T10:39:32;5.53;;;5.03;;
16504;SDS011;8365;51.030;4.696;2022-07-23T10:42:08;4.80;;;3.95;;
16504;SDS011;8365;51.030;4.696;2022-07-23T10:44:46;4.15;;;3.72;;
16504;SDS011;8365;51.030;4.696;2022-07-23T10:47:30;4.68;;;3.60;;
16504;SDS011;8365;51.030;4.696;2022-07-23T10:50:26;5.32;;;3.53;;
16504;SDS011;8365;51.030;4.696;2022-07-23T10:55:47;4.05;;;3.53;;
16504;SDS011;8365;51.030;4.696;2022-07-23T10:58:20;4.03;;;3.58;;
16504;SDS011;8365;51.030;4.696;2022-07-23T11:00:52;3.63;;;3.33;;
16504;SDS011;8365;51.030;4.696;2022-07-23T11:06:02;2.70;;;2.50;;
16504;SDS011;8365;51.030;4.696;2022-07-23T11:08:33;2.47;;;2.38;;
16504;SDS011;8365;51.030;4.696;2022-07-23T11:16:16;3.40;;;3.20;;
16504;SDS011;8365;51.030;4.696;2022-07-23T11:18:58;2.63;;;2.42;;
16504;SDS011;8365;51.030;4.696;2022-07-23T11:24:07;2.58;;;2.38;;
16504;SDS011;8365;51.030;4.696;2022-07-23T11:32:17;2.00;;;1.90;;
16504;SDS011;8365;51.030;4.696;2022-07-23T11:34:57;2.80;;;2.60;;
16504;SDS011;8365;51.030;4.696;2022-07-23T11:37:32;2.85;;;2.65;;
16504;SDS011;8365;51.030;4.696;2022-07-23T11:40:12;2.50;;;2.30;;
16504;SDS011;8365;51.030;4.696;2022-07-23T11:42:54;2.50;;;2.30;;
16504;SDS011;8365;51.030;4.696;2022-07-23T11:45:31;2.40;;;2.20;;
16504;SDS011;8365;51.030;4.696;2022-07-23T11:48:09;2.70;;;2.50;;
16504;SDS011;8365;51.030;4.696;2022-07-23T11:50:47;2.42;;;2.22;;
16504;SDS011;8365;51.030;4.696;2022-07-23T11:53:22;2.55;;;2.33;;
16504;SDS011;8365;51.030;4.696;2022-07-23T11:55:54;2.20;;;2.10;;
16504;SDS011;8365;51.030;4.696;2022-07-23T11:58:41;2.20;;;2.03;;
16504;SDS011;8365;51.030;4.696;2022-07-23T12:01:27;3.00;;;2.15;;
16504;SDS011;8365;51.030;4.696;2022-07-23T12:04:00;2.40;;;2.20;;
16504;SDS011;8365;51.030;4.696;2022-07-23T12:06:37;2.45;;;2.25;;
16504;SDS011;8365;51.030;4.696;2022-07-23T12:09:08;2.30;;;2.10;;
16504;SDS011;8365;51.030;4.696;2022-07-23T12:11:55;2.53;;;2.10;;
16504;SDS011;8365;51.030;4.696;2022-07-23T12:14:29;2.50;;;2.30;;
16504;SDS011;8365;51.030;4.696;2022-07-23T12:17:07;2.30;;;2.10;;
16504;SDS011;8365;51.030;4.696;2022-07-23T12:19:38;2.25;;;2.15;;
16504;SDS011;8365;51.030;4.696;2022-07-23T12:22:12;2.22;;;2.13;;
16504;SDS011;8365;51.030;4.696;2022-07-23T12:24:57;3.45;;;2.35;;
16504;SDS011;8365;51.030;4.696;2022-07-23T12:27:30;2.42;;;2.22;;
16504;SDS011;8365;51.030;4.696;2022-07-23T12:30:19;2.60;;;2.40;;
16504;SDS011;8365;51.030;4.696;2022-07-23T12:32:55;2.75;;;2.55;;
16504;SDS011;8365;51.030;4.696;2022-07-23T12:35:34;3.08;;;2.88;;
16504;SDS011;8365;51.030;4.696;2022-07-23T12:38:17;2.80;;;2.60;;
16504;SDS011;8365;51.030;4.696;2022-07-23T12:40:51;2.88;;;2.70;;
16504;SDS011;8365;51.030;4.696;2022-07-23T12:43:30;3.67;;;2.90;;
16504;SDS011;8365;51.030;4.696;2022-07-23T12:46:04;2.72;;;2.63;;
16504;SDS011;8365;51.030;4.696;2022-07-23T12:48:39;2.92;;;2.72;;
16504;SDS011;8365;51.030;4.696;2022-07-23T12:51:24;4.28;;;2.80;;
16504;SDS011;8365;51.030;4.696;2022-07-23T12:54:05;2.85;;;2.65;;
16504;SDS011;8365;51.030;4.696;2022-07-23T12:56:38;3.22;;;2.90;;
16504;SDS011;8365;51.030;4.696;2022-07-23T12:59:11;3.13;;;2.90;;
16504;SDS011;8365;51.030;4.696;2022-07-23T13:01:53;2.65;;;2.45;;
16504;SDS011;8365;51.030;4.696;2022-07-23T13:04:24;3.00;;;2.80;;
16504;SDS011;8365;51.030;4.696;2022-07-23T13:06:57;2.75;;;2.55;;
16504;SDS011;8365;51.030;4.696;2022-07-23T13:09:29;2.97;;;2.70;;
16504;SDS011;8365;51.030;4.696;2022-07-23T13:12:01;3.03;;;2.72;;
16504;SDS011;8365;51.030;4.696;2022-07-23T13:14:32;2.83;;;2.53;;
16504;SDS011;8365;51.030;4.696;2022-07-23T13:17:02;6.10;;;2.80;;
16504;SDS011;8365;51.030;4.696;2022-07-23T13:19:33;2.83;;;2.63;;
16504;SDS011;8365;51.030;4.696;2022-07-23T13:22:03;3.03;;;2.50;;
16504;SDS011;8365;51.030;4.696;2022-07-23T13:24:36;2.60;;;2.40;;
16504;SDS011;8365;51.030;4.696;2022-07-23T13:27:07;3.10;;;2.78;;
16504;SDS011;8365;51.030;4.696;2022-07-23T13:29:38;2.75;;;2.55;;
16504;SDS011;8365;51.030;4.696;2022-07-23T13:32:09;2.83;;;2.53;;
16504;SDS011;8365;51.030;4.696;2022-07-23T13:34:40;2.92;;;2.67;;
16504;SDS011;8365;51.030;4.696;2022-07-23T13:37:10;3.00;;;2.80;;
16504;SDS011;8365;51.030;4.696;2022-07-23T13:39:43;3.10;;;2.90;;
16504;SDS011;8365;51.030;4.696;2022-07-23T13:42:13;3.47;;;2.90;;
16504;SDS011;8365;51.030;4.696;2022-07-23T13:44:44;3.08;;;2.72;;
16504;SDS011;8365;51.030;4.696;2022-07-23T13:47:14;3.22;;;2.95;;
16504;SDS011;8365;51.030;4.696;2022-07-23T13:49:44;3.38;;;3.00;;
16504;SDS011;8365;51.030;4.696;2022-07-23T13:52:15;3.25;;;2.95;;
16504;SDS011;8365;51.030;4.696;2022-07-23T13:54:45;3.38;;;3.08;;
16504;SDS011;8365;51.030;4.696;2022-07-23T13:57:16;3.05;;;2.83;;
16504;SDS011;8365;51.030;4.696;2022-07-23T13:59:46;3.17;;;2.97;;
16504;SDS011;8365;51.030;4.696;2022-07-23T14:02:17;4.45;;;3.30;;
16504;SDS011;8365;51.030;4.696;2022-07-23T14:04:48;3.40;;;3.10;;
16504;SDS011;8365;51.030;4.696;2022-07-23T14:07:19;3.13;;;2.92;;
16504;SDS011;8365;51.030;4.696;2022-07-23T14:09:50;5.47;;;3.47;;
16504;SDS011;8365;51.030;4.696;2022-07-23T14:12:20;3.90;;;3.28;;
16504;SDS011;8365;51.030;4.696;2022-07-23T14:14:51;3.83;;;3.53;;
16504;SDS011;8365;51.030;4.696;2022-07-23T14:17:21;3.65;;;3.38;;
16504;SDS011;8365;51.030;4.696;2022-07-23T14:19:52;3.65;;;3.35;;
16504;SDS011;8365;51.030;4.696;2022-07-23T14:22:22;3.92;;;3.58;;
16504;SDS011;8365;51.030;4.696;2022-07-23T14:24:53;4.38;;;3.80;;
16504;SDS011;8365;51.030;4.696;2022-07-23T14:27:24;4.18;;;3.78;;
16504;SDS011;8365;51.030;4.696;2022-07-23T14:29:58;4.25;;;3.80;;
16504;SDS011;8365;51.030;4.696;2022-07-23T14:32:28;3.85;;;3.55;;
16504;SDS011;8365;51.030;4.696;2022-07-23T14:34:59;3.63;;;3.33;;
16504;SDS011;8365;51.030;4.696;2022-07-23T14:37:29;3.83;;;3.53;;
16504;SDS011;8365;51.030;4.696;2022-07-23T14:40:00;4.20;;;3.70;;
16504;SDS011;8365;51.030;4.696;2022-07-23T14:42:31;3.35;;;3.05;;
16504;SDS011;8365;51.030;4.696;2022-07-23T14:45:02;3.53;;;3.30;;
16504;SDS011;8365;51.030;4.696;2022-07-23T14:47:35;3.60;;;3.30;;
16504;SDS011;8365;51.030;4.696;2022-07-23T14:50:06;3.55;;;3.20;;
16504;SDS011;8365;51.030;4.696;2022-07-23T14:52:37;3.47;;;3.17;;
16504;SDS011;8365;51.030;4.696;2022-07-23T14:55:07;3.88;;;3.53;;
16504;SDS011;8365;51.030;4.696;2022-07-23T14:57:39;4.30;;;3.10;;
16504;SDS011;8365;51.030;4.696;2022-07-23T15:00:09;3.90;;;3.15;;
16504;SDS011;8365;51.030;4.696;2022-07-23T15:02:40;3.60;;;3.30;;
16504;SDS011;8365;51.030;4.696;2022-07-23T15:05:11;3.60;;;3.30;;
16504;SDS011;8365;51.030;4.696;2022-07-23T15:07:41;4.05;;;3.55;;
16504;SDS011;8365;51.030;4.696;2022-07-23T15:10:12;4.32;;;3.85;;
16504;SDS011;8365;51.030;4.696;2022-07-23T15:12:42;3.95;;;3.60;;
16504;SDS011;8365;51.030;4.696;2022-07-23T15:15:13;4.30;;;3.75;;
16504;SDS011;8365;51.030;4.696;2022-07-23T15:17:43;4.35;;;3.88;;
16504;SDS011;8365;51.030;4.696;2022-07-23T15:20:14;4.82;;;3.75;;
16504;SDS011;8365;51.030;4.696;2022-07-23T15:22:44;4.50;;;3.70;;
16504;SDS011;8365;51.030;4.696;2022-07-23T15:25:17;3.80;;;3.45;;
16504;SDS011;8365;51.030;4.696;2022-07-23T15:27:48;4.53;;;3.53;;
16504;SDS011;8365;51.030;4.696;2022-07-23T15:30:18;4.72;;;4.22;;
16504;SDS011;8365;51.030;4.696;2022-07-23T15:32:49;3.67;;;3.38;;
16504;SDS011;8365;51.030;4.696;2022-07-23T15:35:19;4.22;;;3.85;;
16504;SDS011;8365;51.030;4.696;2022-07-23T15:37:50;4.47;;;4.07;;
16504;SDS011;8365;51.030;4.696;2022-07-23T15:40:20;4.32;;;4.03;;
16504;SDS011;8365;51.030;4.696;2022-07-23T15:42:51;4.28;;;3.97;;
16504;SDS011;8365;51.030;4.696;2022-07-23T15:45:21;4.30;;;3.90;;
16504;SDS011;8365;51.030;4.696;2022-07-23T15:47:52;5.25;;;4.03;;
16504;SDS011;8365;51.030;4.696;2022-07-23T15:50:22;4.72;;;4.13;;